createdAt,value
2022-10-30T00:00:09.614Z,15.74
2022-10-30T00:02:39.317Z,15.77
2022-10-30T00:05:07.267Z,15.89
2022-10-30T00:07:34.594Z,16.05
2022-10-30T00:10:01.960Z,16.09
2022-10-30T00:12:29.533Z,15.89
2022-10-30T00:14:56.848Z,15.22
2022-10-30T00:17:24.191Z,15.78
2022-10-30T00:19:51.781Z,15.52
2022-10-30T00:22:19.220Z,15.76
2022-10-30T00:24:46.580Z,15.67
2022-10-30T00:27:14.171Z,15.95
2022-10-30T00:29:41.884Z,15.95
2022-10-30T00:32:09.234Z,15.60
2022-10-30T00:34:36.919Z,15.60
2022-10-30T00:37:05.187Z,14.96
2022-10-30T00:39:32.543Z,15.54
2022-10-30T00:42:00.105Z,15.73
2022-10-30T00:44:37.499Z,15.69
2022-10-30T00:47:07.258Z,15.46
2022-10-30T00:49:37.077Z,15.48
2022-10-30T00:52:05.894Z,15.66
2022-10-30T00:54:33.251Z,15.98
2022-10-30T00:57:01.222Z,15.22
2022-10-30T00:59:30.621Z,15.76
2022-10-30T01:01:58.160Z,15.02
2022-10-30T01:04:29.109Z,15.20
2022-10-30T01:06:58.015Z,15.54
2022-10-30T01:09:25.490Z,14.62
2022-10-30T01:11:52.843Z,14.18
2022-10-30T01:14:20.460Z,14.20
2022-10-30T01:17:17.315Z,14.71
2022-10-30T01:19:53.324Z,15.10
2022-10-30T01:22:38.901Z,14.89
2022-10-30T01:25:12.512Z,14.40
2022-10-30T01:27:55.992Z,14.25
2022-10-30T01:30:48.511Z,14.78
2022-10-30T01:33:36.634Z,15.11
2022-10-30T01:36:36.191Z,15.35
2022-10-30T01:39:08.067Z,15.66
2022-10-30T01:41:35.765Z,15.59
2022-10-30T01:44:05.590Z,15.65
2022-10-30T01:46:49.937Z,15.42
2022-10-30T01:49:40.964Z,15.18
2022-10-30T01:52:19.159Z,15.10
2022-10-30T01:54:58.492Z,15.31
2022-10-30T01:57:34.711Z,14.80
2022-10-30T02:00:13.111Z,14.94
2022-10-30T02:02:41.254Z,14.85
2022-10-30T02:05:09.739Z,15.11
2022-10-30T02:07:37.093Z,14.44
2022-10-30T02:10:07.033Z,14.86
2022-10-30T02:12:34.658Z,15.10
2022-10-30T02:15:02.042Z,13.53
2022-10-30T02:17:29.470Z,14.14
2022-10-30T02:19:57.110Z,14.39
2022-10-30T02:22:25.000Z,14.70
2022-10-30T02:24:52.765Z,14.83
2022-10-30T02:27:20.582Z,14.83
2022-10-30T02:29:49.285Z,15.37
2022-10-30T02:32:16.645Z,14.80
2022-10-30T02:34:44.699Z,14.77
2022-10-30T02:37:12.081Z,14.95
2022-10-30T02:39:39.654Z,14.31
2022-10-30T02:42:07.482Z,14.67
2022-10-30T02:44:34.832Z,13.76
2022-10-30T02:47:02.150Z,13.43
2022-10-30T02:49:29.853Z,14.18
2022-10-30T02:51:57.180Z,14.46
2022-10-30T02:54:24.570Z,14.66
2022-10-30T02:56:52.329Z,14.24
2022-10-30T02:59:21.527Z,14.47
2022-10-30T03:01:49.194Z,14.87
2022-10-30T03:04:16.939Z,14.22
2022-10-30T03:06:44.321Z,13.21
2022-10-30T03:09:11.700Z,14.12
2022-10-30T03:11:39.290Z,13.84
2022-10-30T03:14:06.651Z,13.55
2022-10-30T03:16:34.040Z,13.42
2022-10-30T03:19:01.705Z,13.67
2022-10-30T03:21:29.164Z,13.26
2022-10-30T03:23:56.510Z,13.27
2022-10-30T03:26:24.180Z,13.60
2022-10-30T03:28:51.586Z,13.47
2022-10-30T03:31:19.750Z,13.94
2022-10-30T03:33:47.581Z,14.25
2022-10-30T03:36:15.690Z,14.41
2022-10-30T03:38:43.041Z,14.47
2022-10-30T03:41:11.012Z,14.32
2022-10-30T03:43:38.368Z,14.62
2022-10-30T03:46:05.783Z,13.48
2022-10-30T03:48:33.733Z,13.26
2022-10-30T03:51:01.119Z,13.25
2022-10-30T03:53:28.815Z,12.99
2022-10-30T03:56:00.729Z,13.91
2022-10-30T03:58:28.798Z,14.19
2022-10-30T04:01:06.343Z,14.15
2022-10-30T04:03:34.536Z,14.51
2022-10-30T04:06:01.898Z,14.63
2022-10-30T04:08:29.333Z,14.24
2022-10-30T04:10:57.654Z,14.32
2022-10-30T04:13:25.063Z,14.31
2022-10-30T04:15:56.266Z,14.26
2022-10-30T04:18:25.682Z,14.77
2022-10-30T04:20:53.725Z,14.56
2022-10-30T04:23:21.402Z,14.09
2022-10-30T04:25:49.099Z,13.64
2022-10-30T04:28:16.676Z,13.82
2022-10-30T04:30:45.800Z,13.43
2022-10-30T04:33:14.156Z,13.70
2022-10-30T04:35:41.689Z,13.99
2022-10-30T04:38:11.103Z,13.46
2022-10-30T04:40:40.832Z,13.76
2022-10-30T04:43:08.412Z,13.99
2022-10-30T04:45:36.270Z,13.52
2022-10-30T04:48:11.219Z,12.94
2022-10-30T04:50:39.006Z,13.69
2022-10-30T04:53:17.139Z,13.42
2022-10-30T04:55:44.882Z,14.02
2022-10-30T04:58:12.851Z,14.27
2022-10-30T05:00:40.324Z,14.30
2022-10-30T05:03:09.456Z,14.28
2022-10-30T05:05:37.272Z,14.52
2022-10-30T05:08:04.792Z,14.67
2022-10-30T05:10:32.152Z,14.71
2022-10-30T05:13:00.138Z,14.33
2022-10-30T05:15:27.570Z,14.49
2022-10-30T05:17:55.103Z,14.28
2022-10-30T05:20:22.894Z,14.49
2022-10-30T05:22:57.129Z,14.46
2022-10-30T05:25:25.092Z,14.34
2022-10-30T05:28:01.048Z,13.73
2022-10-30T05:30:30.703Z,12.69
2022-10-30T05:33:05.644Z,13.42
2022-10-30T05:35:33.948Z,13.62
2022-10-30T05:38:01.817Z,13.67
2022-10-30T05:40:30.060Z,13.56
2022-10-30T05:42:58.671Z,12.83
2022-10-30T05:45:26.488Z,13.20
2022-10-30T05:47:58.998Z,12.84
2022-10-30T05:50:27.955Z,13.07
2022-10-30T05:52:57.153Z,12.36
2022-10-30T05:55:24.681Z,13.16
2022-10-30T05:57:57.780Z,13.24
2022-10-30T06:00:25.915Z,13.50
2022-10-30T06:02:58.787Z,13.11
2022-10-30T06:05:26.573Z,12.87
2022-10-30T06:07:57.397Z,13.49
2022-10-30T06:10:24.910Z,13.39
2022-10-30T06:13:02.586Z,13.11
2022-10-30T06:15:30.422Z,13.60
2022-10-30T06:17:58.457Z,13.95
2022-10-30T06:20:29.257Z,13.52
2022-10-30T06:23:04.708Z,14.09
2022-10-30T06:25:40.352Z,14.19
2022-10-30T06:28:10.563Z,13.39
2022-10-30T06:30:38.371Z,12.96
2022-10-30T06:33:06.670Z,12.92
2022-10-30T06:35:34.441Z,12.71
2022-10-30T06:38:02.097Z,13.07
2022-10-30T06:40:30.223Z,13.58
2022-10-30T06:42:58.602Z,14.25
2022-10-30T06:45:26.878Z,14.54
2022-10-30T06:47:54.293Z,13.93
2022-10-30T06:50:22.111Z,14.12
2022-10-30T06:52:50.284Z,14.60
2022-10-30T06:55:18.001Z,14.38
2022-10-30T06:57:45.644Z,14.56
2022-10-30T07:00:13.645Z,14.93
2022-10-30T07:02:41.237Z,15.20
2022-10-30T07:05:09.588Z,15.49
2022-10-30T07:07:37.335Z,15.72
2022-10-30T07:10:06.531Z,15.69
2022-10-30T07:12:36.402Z,15.75
2022-10-30T07:15:06.570Z,15.10
2022-10-30T07:17:34.798Z,15.21
2022-10-30T07:20:02.494Z,15.16
2022-10-30T07:22:30.308Z,15.62
2022-10-30T07:24:57.917Z,15.95
2022-10-30T07:27:25.672Z,15.43
2022-10-30T07:29:54.041Z,15.78
2022-10-30T07:32:21.434Z,15.80
2022-10-30T07:34:49.391Z,15.99
2022-10-30T07:37:18.631Z,16.32
2022-10-30T07:39:46.018Z,16.25
2022-10-30T07:42:14.353Z,16.02
2022-10-30T07:44:43.260Z,16.34
2022-10-30T07:47:10.832Z,16.31
2022-10-30T07:49:39.249Z,16.21
2022-10-30T07:52:06.939Z,16.04
2022-10-30T07:54:34.352Z,15.99
2022-10-30T07:57:03.941Z,15.98
2022-10-30T07:59:34.217Z,16.38
2022-10-30T08:02:02.300Z,15.88
2022-10-30T08:04:31.032Z,15.67
2022-10-30T08:06:58.576Z,15.72
2022-10-30T08:09:26.015Z,15.97
2022-10-30T08:11:53.852Z,15.13
2022-10-30T08:14:21.173Z,15.60
2022-10-30T08:16:48.539Z,15.44
2022-10-30T08:19:16.249Z,16.00
2022-10-30T08:21:43.587Z,15.96
2022-10-30T08:24:11.251Z,15.64
2022-10-30T08:26:39.303Z,15.49
2022-10-30T08:29:06.959Z,15.69
2022-10-30T08:31:34.289Z,16.37
2022-10-30T08:34:06.615Z,16.25
2022-10-30T08:36:34.922Z,16.23
2022-10-30T08:39:04.035Z,16.22
2022-10-30T08:41:33.798Z,16.28
2022-10-30T08:44:01.283Z,16.56
2022-10-30T08:46:31.033Z,16.57
2022-10-30T08:48:58.555Z,15.44
2022-10-30T08:51:25.948Z,15.82
2022-10-30T08:53:53.664Z,16.55
2022-10-30T08:56:21.193Z,16.90
2022-10-30T08:58:51.146Z,16.75
2022-10-30T09:01:21.836Z,16.68
2022-10-30T09:03:54.358Z,17.06
2022-10-30T09:06:24.518Z,17.03
2022-10-30T09:08:53.574Z,17.49
2022-10-30T09:11:21.506Z,17.26
2022-10-30T09:13:49.117Z,17.56
2022-10-30T09:16:17.260Z,17.72
2022-10-30T09:18:44.662Z,17.13
2022-10-30T09:21:12.359Z,16.96
2022-10-30T09:23:39.716Z,16.53
2022-10-30T09:26:08.141Z,16.02
2022-10-30T09:28:36.837Z,16.40
2022-10-30T09:31:06.815Z,16.46
2022-10-30T09:33:35.231Z,16.37
2022-10-30T09:36:05.081Z,16.94
2022-10-30T09:38:32.478Z,16.38
2022-10-30T09:41:11.884Z,16.93
2022-10-30T09:43:58.264Z,16.79
2022-10-30T09:47:03.593Z,17.12
2022-10-30T09:49:50.125Z,17.35
2022-10-30T09:52:34.917Z,17.43
2022-10-30T09:55:17.917Z,17.35
2022-10-30T09:58:18.923Z,17.69
2022-10-30T10:00:51.094Z,17.60
2022-10-30T10:03:48.085Z,17.47
2022-10-30T10:06:18.891Z,17.76
2022-10-30T10:09:08.176Z,17.74
2022-10-30T10:11:37.495Z,17.55
2022-10-30T10:14:17.077Z,16.74
2022-10-30T10:16:45.556Z,17.55
2022-10-30T10:19:23.367Z,17.45
2022-10-30T10:21:58.025Z,17.60
2022-10-30T10:24:30.687Z,18.01
2022-10-30T10:27:13.111Z,17.66
2022-10-30T10:29:58.800Z,17.60
2022-10-30T10:32:35.220Z,17.72
2022-10-30T10:35:30.230Z,18.16
2022-10-30T10:38:08.442Z,18.07
2022-10-30T10:40:48.027Z,18.35
2022-10-30T10:43:53.339Z,18.37
2022-10-30T10:46:26.783Z,18.44
2022-10-30T10:49:12.636Z,17.32
2022-10-30T10:51:47.814Z,17.29
2022-10-30T10:55:00.889Z,17.64
2022-10-30T10:57:38.466Z,17.60
2022-10-30T11:00:15.902Z,16.61
2022-10-30T11:02:51.907Z,17.21
2022-10-30T11:05:36.273Z,17.52
2022-10-30T11:08:11.409Z,17.84
2022-10-30T11:10:38.786Z,17.93
2022-10-30T11:13:07.274Z,17.97
2022-10-30T11:15:40.008Z,18.48
2022-10-30T11:18:10.795Z,18.37
2022-10-30T11:20:59.672Z,18.51
2022-10-30T11:23:41.149Z,18.74
2022-10-30T11:26:17.116Z,18.81
2022-10-30T11:28:55.159Z,17.84
2022-10-30T11:31:38.127Z,18.47
2022-10-30T11:34:17.889Z,17.98
2022-10-30T11:36:48.971Z,17.93
2022-10-30T11:39:34.028Z,18.48
2022-10-30T11:42:21.548Z,18.17
2022-10-30T11:44:52.005Z,16.97
2022-10-30T11:47:21.785Z,17.73
2022-10-30T11:49:51.892Z,18.19
2022-10-30T11:52:21.367Z,18.12
2022-10-30T11:54:57.412Z,18.28
2022-10-30T11:57:31.044Z,17.65
2022-10-30T12:00:04.603Z,17.91
2022-10-30T12:02:43.311Z,18.25
2022-10-30T12:05:26.081Z,17.42
2022-10-30T12:08:17.348Z,16.94
2022-10-30T12:10:56.413Z,16.87
2022-10-30T12:13:24.260Z,15.84
2022-10-30T12:16:04.706Z,16.14
2022-10-30T12:18:32.041Z,16.79
2022-10-30T12:20:59.664Z,16.69
2022-10-30T12:23:28.000Z,17.13
2022-10-30T12:25:57.833Z,16.65
2022-10-30T12:28:27.026Z,17.32
2022-10-30T12:31:10.535Z,17.10
2022-10-30T12:33:50.336Z,17.05
2022-10-30T12:36:20.279Z,17.33
2022-10-30T12:38:52.745Z,17.66
2022-10-30T12:41:29.363Z,17.73
2022-10-30T12:43:59.886Z,17.43
2022-10-30T12:46:43.948Z,16.91
2022-10-30T12:49:25.520Z,17.78
2022-10-30T12:51:56.373Z,17.40
2022-10-30T12:54:36.179Z,17.70
2022-10-30T12:57:10.814Z,17.95
2022-10-30T12:59:56.641Z,17.50
2022-10-30T13:02:42.590Z,16.01
2022-10-30T13:05:21.479Z,16.88
2022-10-30T13:07:51.999Z,17.06
2022-10-30T13:10:28.999Z,16.81
2022-10-30T13:13:02.008Z,17.26
2022-10-30T13:15:33.158Z,16.97
2022-10-30T13:18:00.917Z,17.05
2022-10-30T13:20:28.983Z,17.65
2022-10-30T13:23:04.346Z,16.96
2022-10-30T13:25:39.376Z,16.72
2022-10-30T13:28:31.391Z,16.55
2022-10-30T13:31:10.500Z,15.98
2022-10-30T13:33:42.779Z,16.94
2022-10-30T13:36:37.679Z,16.71
2022-10-30T13:39:39.511Z,17.29
2022-10-30T13:42:12.485Z,16.41
2022-10-30T13:44:58.184Z,15.97
2022-10-30T13:47:46.218Z,16.26
2022-10-30T13:50:25.883Z,16.30
2022-10-30T13:52:55.349Z,16.20
2022-10-30T13:55:30.366Z,15.40
2022-10-30T13:58:12.745Z,15.74
2022-10-30T14:01:05.646Z,15.96
2022-10-30T14:03:58.392Z,16.65
2022-10-30T14:06:36.200Z,16.56
2022-10-30T14:09:10.815Z,16.54
2022-10-30T14:11:38.128Z,16.57
2022-10-30T14:14:24.269Z,16.75
2022-10-30T14:17:04.356Z,16.96
2022-10-30T14:19:31.965Z,16.00
2022-10-30T14:21:59.922Z,16.66
2022-10-30T14:24:36.323Z,15.95
2022-10-30T14:27:03.717Z,16.33
2022-10-30T14:29:34.039Z,16.27
2022-10-30T14:32:01.673Z,15.59
2022-10-30T14:34:45.807Z,15.95
2022-10-30T14:37:13.325Z,15.52
2022-10-30T14:39:47.280Z,14.96
2022-10-30T14:42:44.258Z,15.39
2022-10-30T14:45:26.187Z,15.45
2022-10-30T14:48:12.489Z,15.20
2022-10-30T14:51:05.836Z,15.23
2022-10-30T14:53:54.998Z,15.49
2022-10-30T14:56:47.604Z,15.40
2022-10-30T14:59:14.806Z,15.81
2022-10-30T15:01:53.929Z,16.00
2022-10-30T15:04:28.074Z,15.11
2022-10-30T15:07:08.710Z,15.27
2022-10-30T15:09:51.304Z,15.77
2022-10-30T15:12:40.337Z,15.83
2022-10-30T15:15:15.156Z,16.10
2022-10-30T15:17:53.849Z,16.23
2022-10-30T15:20:25.809Z,16.07
2022-10-30T15:23:01.099Z,15.72
2022-10-30T15:25:36.252Z,16.32
2022-10-30T15:28:03.880Z,16.61
2022-10-30T15:30:31.220Z,16.23
2022-10-30T15:32:58.832Z,16.59
2022-10-30T15:35:27.922Z,16.64
2022-10-30T15:38:08.138Z,16.73
2022-10-30T15:40:36.733Z,16.72
2022-10-30T15:43:05.867Z,16.74
2022-10-30T15:45:37.444Z,16.31
2022-10-30T15:48:29.108Z,16.36
2022-10-30T15:51:07.279Z,16.53
2022-10-30T15:53:44.575Z,16.73
2022-10-30T15:56:44.387Z,16.74
2022-10-30T15:59:31.464Z,16.74
2022-10-30T16:01:58.908Z,16.69
2022-10-30T16:04:31.333Z,17.00
2022-10-30T16:07:04.436Z,16.88
2022-10-30T16:09:32.087Z,16.94
2022-10-30T16:11:59.713Z,16.49
2022-10-30T16:14:32.604Z,16.65
2022-10-30T16:17:00.205Z,16.60
2022-10-30T16:19:29.408Z,16.32
2022-10-30T16:21:57.287Z,15.87
2022-10-30T16:24:33.043Z,16.56
2022-10-30T16:27:04.815Z,16.60
2022-10-30T16:29:32.428Z,16.66
2022-10-30T16:31:59.796Z,16.83
2022-10-30T16:34:31.927Z,16.46
2022-10-30T16:36:59.713Z,16.56
2022-10-30T16:39:27.172Z,16.56
2022-10-30T16:41:58.835Z,16.70
2022-10-30T16:44:30.372Z,16.67
2022-10-30T16:47:14.300Z,16.78
2022-10-30T16:49:46.987Z,16.76
2022-10-30T16:52:17.149Z,16.44
2022-10-30T16:54:49.099Z,16.43
2022-10-30T16:57:21.130Z,16.73
2022-10-30T16:59:49.553Z,16.57
2022-10-30T17:02:21.592Z,16.63
2022-10-30T17:04:55.345Z,16.00
2022-10-30T17:07:25.940Z,15.57
2022-10-30T17:09:55.620Z,16.36
2022-10-30T17:12:23.720Z,16.61
2022-10-30T17:15:05.949Z,16.43
2022-10-30T17:17:35.351Z,16.46
2022-10-30T17:20:29.879Z,16.29
2022-10-30T17:23:07.434Z,16.32
2022-10-30T17:25:38.324Z,16.32
2022-10-30T17:28:05.989Z,16.53
2022-10-30T17:30:41.324Z,16.62
2022-10-30T17:33:35.418Z,16.55
2022-10-30T17:36:06.047Z,15.99
2022-10-30T17:38:33.657Z,14.99
2022-10-30T17:41:01.268Z,15.29
2022-10-30T17:43:30.472Z,15.50
2022-10-30T17:45:58.241Z,16.02
2022-10-30T17:48:29.463Z,16.22
2022-10-30T17:50:56.786Z,16.24
2022-10-30T17:53:25.347Z,16.06
2022-10-30T17:56:03.924Z,15.37
2022-10-30T17:58:31.841Z,15.24
2022-10-30T18:00:59.381Z,15.15
2022-10-30T18:03:27.066Z,15.28
2022-10-30T18:05:54.491Z,15.07
2022-10-30T18:08:21.888Z,15.02
2022-10-30T18:10:49.500Z,15.56
2022-10-30T18:13:16.827Z,15.70
2022-10-30T18:15:44.970Z,16.10
2022-10-30T18:18:12.590Z,15.94
2022-10-30T18:20:39.960Z,15.91
2022-10-30T18:23:46.743Z,16.10
2022-10-30T18:26:17.712Z,15.88
2022-10-30T18:28:45.630Z,16.09
2022-10-30T18:31:13.826Z,16.39
2022-10-30T18:33:41.590Z,16.33
2022-10-30T18:36:22.367Z,16.48
2022-10-30T18:38:50.092Z,16.43
2022-10-30T18:41:44.377Z,16.52
2022-10-30T18:44:15.901Z,16.62
2022-10-30T18:46:43.270Z,16.48
2022-10-30T18:49:10.715Z,16.33
2022-10-30T18:51:38.494Z,16.52
2022-10-30T18:54:11.805Z,16.23
2022-10-30T18:56:39.428Z,16.21
2022-10-30T18:59:06.746Z,16.58
2022-10-30T19:01:34.305Z,16.63
2022-10-30T19:04:03.725Z,16.42
2022-10-30T19:06:32.874Z,16.49
2022-10-30T19:09:00.246Z,16.27
2022-10-30T19:11:30.797Z,14.97
2022-10-30T19:13:58.935Z,14.78
2022-10-30T19:16:26.329Z,15.37
2022-10-30T19:18:54.118Z,15.85
2022-10-30T19:21:22.933Z,15.40
2022-10-30T19:23:50.337Z,15.85
2022-10-30T19:26:18.013Z,16.06
2022-10-30T19:28:45.614Z,15.82
2022-10-30T19:31:13.735Z,15.87
2022-10-30T19:33:41.346Z,16.01
2022-10-30T19:36:26.968Z,15.85
2022-10-30T19:38:54.591Z,15.94
2022-10-30T19:41:22.033Z,15.98
2022-10-30T19:43:49.379Z,16.05
2022-10-30T19:46:16.981Z,16.09
2022-10-30T19:49:00.367Z,16.34
2022-10-30T19:51:28.620Z,16.16
2022-10-30T19:53:56.142Z,15.99
2022-10-30T19:56:23.530Z,15.87
2022-10-30T19:58:51.159Z,16.14
2022-10-30T20:01:18.656Z,16.12
2022-10-30T20:03:46.336Z,16.07
2022-10-30T20:06:13.693Z,16.06
2022-10-30T20:08:41.017Z,16.31
2022-10-30T20:11:08.643Z,16.20
2022-10-30T20:13:37.223Z,16.26
2022-10-30T20:16:05.608Z,16.19
2022-10-30T20:18:35.091Z,16.42
2022-10-30T20:21:04.594Z,16.32
2022-10-30T20:23:31.973Z,16.41
2022-10-30T20:26:24.124Z,16.26
2022-10-30T20:28:51.761Z,16.33
2022-10-30T20:31:19.360Z,16.11
2022-10-30T20:33:46.672Z,16.16
2022-10-30T20:36:14.132Z,15.88
2022-10-30T20:38:41.796Z,16.26
2022-10-30T20:41:22.393Z,16.11
2022-10-30T20:43:50.552Z,16.13
2022-10-30T20:46:19.236Z,16.18
2022-10-30T20:48:46.675Z,15.81
2022-10-30T20:51:14.418Z,16.06
2022-10-30T20:53:41.743Z,16.19
2022-10-30T20:56:09.072Z,16.27
2022-10-30T20:58:36.677Z,16.02
2022-10-30T21:01:04.058Z,16.16
2022-10-30T21:03:31.460Z,16.17
2022-10-30T21:06:00.112Z,16.39
2022-10-30T21:08:28.214Z,15.89
2022-10-30T21:10:59.840Z,16.01
2022-10-30T21:13:28.194Z,15.99
2022-10-30T21:15:59.408Z,16.17
2022-10-30T21:18:27.009Z,15.86
2022-10-30T21:20:54.334Z,16.09
2022-10-30T21:23:21.658Z,15.77
2022-10-30T21:25:49.258Z,15.76
2022-10-30T21:28:16.584Z,15.64
2022-10-30T21:30:43.892Z,15.49
2022-10-30T21:33:11.463Z,15.94
2022-10-30T21:35:38.776Z,15.28
2022-10-30T21:38:06.096Z,15.41
2022-10-30T21:40:33.685Z,15.48
2022-10-30T21:43:04.135Z,15.57
2022-10-30T21:45:32.064Z,15.73
2022-10-30T21:47:59.648Z,15.57
2022-10-30T21:50:26.972Z,15.92
2022-10-30T21:52:54.319Z,15.86
2022-10-30T21:55:21.896Z,15.82
2022-10-30T21:57:49.262Z,15.05
2022-10-30T22:00:16.790Z,15.43
2022-10-30T22:02:44.380Z,15.54
2022-10-30T22:05:11.705Z,15.64
2022-10-30T22:07:39.019Z,15.63
2022-10-30T22:10:07.280Z,15.43
2022-10-30T22:12:34.608Z,15.50
2022-10-30T22:15:01.950Z,15.63
2022-10-30T22:17:32.324Z,15.95
2022-10-30T22:20:02.195Z,15.74
2022-10-30T22:22:29.797Z,15.89
2022-10-30T22:24:57.112Z,15.77
2022-10-30T22:27:24.437Z,15.42
2022-10-30T22:29:52.003Z,14.89
2022-10-30T22:32:19.319Z,15.28
2022-10-30T22:34:46.657Z,15.47
2022-10-30T22:37:14.251Z,15.72
2022-10-30T22:39:41.582Z,15.83
2022-10-30T22:42:08.888Z,15.35
2022-10-30T22:44:36.482Z,15.62
2022-10-30T22:47:03.808Z,15.41
2022-10-30T22:49:31.123Z,15.31
2022-10-30T22:51:58.710Z,15.62
2022-10-30T22:54:26.139Z,15.57
2022-10-30T22:56:54.923Z,15.56
2022-10-30T22:59:22.561Z,15.61
2022-10-30T23:01:49.986Z,15.78
2022-10-30T23:04:17.455Z,15.81
2022-10-30T23:06:45.079Z,15.49
2022-10-30T23:09:17.130Z,15.72
2022-10-30T23:11:44.979Z,15.25
2022-10-30T23:14:12.368Z,14.89
2022-10-30T23:16:39.750Z,15.27
2022-10-30T23:19:07.528Z,15.27
2022-10-30T23:21:34.855Z,15.66
2022-10-30T23:24:02.922Z,15.40
2022-10-30T23:26:31.896Z,15.42
2022-10-30T23:28:59.595Z,15.43
2022-10-30T23:31:28.591Z,15.48
2022-10-30T23:33:57.911Z,15.46
2022-10-30T23:36:25.403Z,15.15
2022-10-30T23:38:55.694Z,15.59
2022-10-30T23:41:24.284Z,15.02
2022-10-30T23:43:58.416Z,15.33
2022-10-30T23:46:26.184Z,15.18
2022-10-30T23:48:53.667Z,15.23
2022-10-30T23:51:21.188Z,14.58
2022-10-30T23:53:48.812Z,15.16
2022-10-30T23:56:16.214Z,15.23
2022-10-30T23:58:47.222Z,15.27
